Buritizeiro, Brazil
Current Conditions -  °F | °C
As of 3:00 PM on Friday 28 Nov 2014 (Local Time) from SBMK Reporting Station
Thunderstorm Thunderstorm  
Wind Chill: 82°   Ceiling: Unl
Heat Index: 84°   Visibility: 6mi
Dew Point: 64°   Wind: 15mph
Humidity: 54%   Direction: 260°W
Pressure: 29.94"   Gusts: NA
Location:  17.35°S, 44.96°W
Report Text: SBMK 281700Z 26013KT 9999 TS SCT040 FEW045CB 28/18 Q1014
Loading
Personal Weather Stations






























Interactive Weather Map New forecast layout! Learn more

10-Day Weather Forecast

Advertisements
Track Severe Weather on mobile